createdAt,value
2023-01-15T00:00:55.282Z,86.42
2023-01-15T00:03:30.208Z,86.79
2023-01-15T00:06:06.064Z,87.31
2023-01-15T00:08:40.513Z,87.46
2023-01-15T00:11:15.257Z,87.88
2023-01-15T00:13:50.512Z,87.72
2023-01-15T00:16:26.506Z,87.77
2023-01-15T00:19:04.502Z,87.56
2023-01-15T00:21:40.352Z,87.45
2023-01-15T00:24:32.571Z,87.12
2023-01-15T00:27:24.305Z,87.01
2023-01-15T00:30:00.994Z,86.56
2023-01-15T00:32:35.235Z,87.46
2023-01-15T00:35:14.042Z,88.34
2023-01-15T00:37:51.458Z,87.84
2023-01-15T00:40:28.076Z,87.66
2023-01-15T00:43:02.248Z,87.76
2023-01-15T00:45:36.765Z,87.50
2023-01-15T00:48:10.958Z,87.71
2023-01-15T00:50:48.146Z,87.98
2023-01-15T00:53:23.977Z,87.62
2023-01-15T00:55:58.626Z,88.43
2023-01-15T00:58:32.935Z,88.07
2023-01-15T01:01:07.958Z,88.92
2023-01-15T01:03:42.370Z,88.32
2023-01-15T01:06:17.745Z,88.95
2023-01-15T01:08:53.402Z,88.33
2023-01-15T01:11:33.060Z,88.79
2023-01-15T01:14:07.335Z,88.93
2023-01-15T01:16:43.258Z,88.62
2023-01-15T01:19:20.973Z,87.46
2023-01-15T01:21:56.770Z,87.36
2023-01-15T01:24:32.533Z,87.64
2023-01-15T01:27:07.045Z,88.37
2023-01-15T01:29:41.418Z,88.38
2023-01-15T01:32:16.815Z,88.14
2023-01-15T01:34:50.988Z,88.44
2023-01-15T01:37:25.455Z,88.48
2023-01-15T01:40:02.167Z,88.49
2023-01-15T01:42:37.158Z,88.58
2023-01-15T01:45:25.131Z,88.73
2023-01-15T01:48:03.885Z,89.48
2023-01-15T01:50:40.812Z,88.69
2023-01-15T01:53:19.135Z,88.95
2023-01-15T01:55:56.711Z,88.46
2023-01-15T01:58:33.454Z,88.75
2023-01-15T02:01:08.124Z,88.93
2023-01-15T02:03:42.949Z,89.39
2023-01-15T02:06:17.791Z,88.70
2023-01-15T02:08:52.243Z,89.14
2023-01-15T02:11:29.146Z,89.51
2023-01-15T02:14:10.892Z,88.75
2023-01-15T02:16:49.744Z,89.53
2023-01-15T02:19:38.886Z,89.30
2023-01-15T02:22:28.898Z,89.01
2023-01-15T02:25:12.325Z,89.54
2023-01-15T02:27:53.310Z,89.88
2023-01-15T02:30:33.389Z,89.54
2023-01-15T02:33:11.567Z,88.65
2023-01-15T02:35:51.713Z,88.76
2023-01-15T02:38:29.789Z,88.64
2023-01-15T02:41:16.352Z,88.37
2023-01-15T02:43:57.785Z,89.09
2023-01-15T02:46:35.194Z,89.00
2023-01-15T02:49:13.698Z,88.91
2023-01-15T02:51:55.378Z,89.29
2023-01-15T02:54:36.519Z,88.78
2023-01-15T02:57:12.838Z,88.73
2023-01-15T02:59:51.421Z,89.90
2023-01-15T03:02:32.292Z,89.62
2023-01-15T03:05:10.987Z,89.74
2023-01-15T03:07:51.405Z,88.36
2023-01-15T03:10:37.502Z,87.78
2023-01-15T03:13:16.829Z,88.85
2023-01-15T03:16:18.159Z,88.39
2023-01-15T03:18:57.715Z,88.77
2023-01-15T03:21:41.161Z,89.21
2023-01-15T03:24:20.409Z,89.36
2023-01-15T03:26:55.916Z,89.39
2023-01-15T03:29:35.893Z,89.17
2023-01-15T03:32:12.318Z,89.16
2023-01-15T03:34:51.384Z,88.66
2023-01-15T03:37:28.787Z,88.75
2023-01-15T03:40:05.621Z,89.00
2023-01-15T03:43:10.964Z,88.52
2023-01-15T03:45:49.145Z,88.73
2023-01-15T03:48:32.285Z,89.52
2023-01-15T03:51:16.504Z,89.71
2023-01-15T03:53:55.107Z,89.59
2023-01-15T03:56:36.896Z,89.41
2023-01-15T03:59:14.726Z,89.38
2023-01-15T04:01:51.867Z,88.84
2023-01-15T04:04:30.157Z,89.18
2023-01-15T04:07:05.501Z,89.28
2023-01-15T04:09:44.093Z,89.03
2023-01-15T04:12:18.621Z,88.99
2023-01-15T04:14:53.339Z,88.25
2023-01-15T04:17:27.741Z,88.19
2023-01-15T04:20:07.609Z,89.16
2023-01-15T04:22:42.843Z,89.39
2023-01-15T04:25:17.561Z,89.17
2023-01-15T04:27:51.794Z,89.19
2023-01-15T04:30:26.865Z,89.80
2023-01-15T04:33:01.021Z,90.11
2023-01-15T04:35:39.010Z,90.05
2023-01-15T04:38:13.496Z,89.93
2023-01-15T04:41:03.005Z,90.35
2023-01-15T04:43:54.756Z,90.20
2023-01-15T04:46:29.274Z,89.93
2023-01-15T04:49:03.873Z,90.69
2023-01-15T04:51:40.498Z,91.07
2023-01-15T04:54:16.464Z,91.05
2023-01-15T04:56:53.935Z,91.20
2023-01-15T04:59:28.896Z,90.99
2023-01-15T05:02:06.339Z,91.89
2023-01-15T05:04:42.455Z,92.06
2023-01-15T05:07:18.479Z,92.08
2023-01-15T05:09:54.953Z,92.54
2023-01-15T05:12:30.541Z,92.48
2023-01-15T05:15:05.026Z,92.35
2023-01-15T05:17:39.616Z,92.64
2023-01-15T05:20:15.959Z,92.35
2023-01-15T05:22:53.315Z,91.82
2023-01-15T05:25:27.445Z,91.72
2023-01-15T05:28:01.946Z,91.25
2023-01-15T05:30:37.321Z,90.74
2023-01-15T05:33:11.905Z,91.17
2023-01-15T05:35:46.128Z,90.74
2023-01-15T05:38:22.059Z,90.68
2023-01-15T05:40:56.364Z,90.90
2023-01-15T05:43:30.784Z,90.88
2023-01-15T05:46:05.245Z,91.46
2023-01-15T05:48:39.908Z,90.66
2023-01-15T05:51:14.272Z,90.57
2023-01-15T05:53:50.282Z,91.22
2023-01-15T05:56:24.743Z,91.08
2023-01-15T05:58:59.364Z,90.75
2023-01-15T06:01:34.005Z,90.92
2023-01-15T06:04:08.921Z,91.22
2023-01-15T06:06:43.967Z,91.18
2023-01-15T06:09:20.528Z,90.91
2023-01-15T06:11:55.797Z,90.80
2023-01-15T06:14:30.394Z,91.11
2023-01-15T06:17:04.628Z,91.00
2023-01-15T06:19:39.100Z,90.89
2023-01-15T06:22:13.368Z,90.22
2023-01-15T06:24:49.192Z,100.00
2023-01-15T06:27:23.394Z,100.00
2023-01-15T06:29:59.386Z,100.00
2023-01-15T06:32:33.660Z,98.50
2023-01-15T06:35:08.855Z,95.96
2023-01-15T06:37:43.060Z,96.26
2023-01-15T06:40:21.721Z,93.38
2023-01-15T06:43:16.475Z,91.59
2023-01-15T06:46:08.683Z,90.75
2023-01-15T06:48:43.306Z,91.30
2023-01-15T06:51:20.593Z,90.17
2023-01-15T06:53:54.775Z,90.14
2023-01-15T06:56:30.760Z,90.57
2023-01-15T06:59:05.029Z,89.87
2023-01-15T07:02:55.905Z,90.36
2023-01-15T07:05:31.042Z,90.99
2023-01-15T07:08:05.967Z,90.60
2023-01-15T07:10:41.418Z,90.92
2023-01-15T07:13:15.567Z,91.20
2023-01-15T07:15:50.159Z,92.18
2023-01-15T07:18:26.115Z,92.49
2023-01-15T07:21:01.242Z,92.12
2023-01-15T07:23:36.069Z,92.81
2023-01-15T07:26:10.657Z,92.09
2023-01-15T07:28:45.002Z,92.91
2023-01-15T07:31:20.188Z,92.51
2023-01-15T07:33:57.300Z,91.52
2023-01-15T07:36:31.951Z,100.00
2023-01-15T07:39:06.766Z,100.00
2023-01-15T07:41:59.641Z,100.00
2023-01-15T07:44:51.394Z,100.00
2023-01-15T07:47:50.459Z,100.00
2023-01-15T07:50:27.679Z,94.37
2023-01-15T07:53:02.800Z,91.57
2023-01-15T07:55:37.709Z,89.47
2023-01-15T07:58:12.205Z,90.17
2023-01-15T08:00:49.047Z,90.85
2023-01-15T08:03:23.591Z,92.16
2023-01-15T08:05:59.628Z,91.66
2023-01-15T08:08:34.119Z,92.28
2023-01-15T08:11:25.248Z,93.02
2023-01-15T08:14:17.257Z,93.18
2023-01-15T08:16:51.494Z,92.78
2023-01-15T08:19:26.982Z,92.62
2023-01-15T08:22:02.789Z,93.02
2023-01-15T08:24:37.288Z,93.23
2023-01-15T08:27:11.616Z,92.71
2023-01-15T08:29:51.142Z,92.47
2023-01-15T08:32:25.787Z,93.12
2023-01-15T08:35:00.331Z,93.32
2023-01-15T08:37:36.252Z,93.30
2023-01-15T08:40:12.984Z,93.51
2023-01-15T08:42:48.664Z,93.66
2023-01-15T08:45:23.382Z,92.92
2023-01-15T08:47:58.406Z,92.91
2023-01-15T08:50:33.833Z,100.00
2023-01-15T08:53:13.443Z,100.00
2023-01-15T08:55:48.394Z,96.68
2023-01-15T08:58:42.906Z,89.87
2023-01-15T09:01:37.664Z,89.64
2023-01-15T09:04:15.737Z,91.29
2023-01-15T09:06:50.691Z,91.28
2023-01-15T09:09:26.408Z,91.93
2023-01-15T09:12:00.973Z,92.57
2023-01-15T09:15:00.822Z,92.60
2023-01-15T09:17:30.081Z,91.67
2023-01-15T09:20:04.998Z,91.37
2023-01-15T09:22:40.191Z,91.33
2023-01-15T09:25:16.472Z,90.17
2023-01-15T09:27:51.338Z,89.86
2023-01-15T09:30:25.664Z,89.08
2023-01-15T09:33:00.157Z,88.85
2023-01-15T09:35:34.387Z,88.40
2023-01-15T09:38:09.244Z,87.78
2023-01-15T09:40:51.038Z,87.32
2023-01-15T09:43:50.835Z,87.63
2023-01-15T09:46:34.979Z,86.52
2023-01-15T09:49:24.227Z,85.93
2023-01-15T09:52:07.335Z,85.47
2023-01-15T09:55:01.568Z,85.81
2023-01-15T09:57:38.486Z,85.06
2023-01-15T10:00:19.621Z,85.39
2023-01-15T10:02:56.647Z,84.91
2023-01-15T10:05:33.949Z,84.67
2023-01-15T10:08:16.048Z,84.61
2023-01-15T10:10:56.604Z,83.80
2023-01-15T10:13:35.585Z,83.07
2023-01-15T10:16:11.325Z,82.34
2023-01-15T10:18:45.795Z,82.54
2023-01-15T10:21:31.237Z,82.30
2023-01-15T10:24:12.159Z,81.39
2023-01-15T10:26:54.202Z,82.26
2023-01-15T10:29:38.470Z,80.69
2023-01-15T10:32:26.069Z,81.03
2023-01-15T10:35:25.697Z,81.20
2023-01-15T10:38:08.571Z,80.74
2023-01-15T10:41:37.919Z,79.13
2023-01-15T10:44:19.696Z,78.85
2023-01-15T10:47:01.104Z,78.91
2023-01-15T10:49:36.448Z,77.98
2023-01-15T10:52:23.680Z,77.99
2023-01-15T10:55:04.995Z,77.43
2023-01-15T10:57:46.884Z,78.20
2023-01-15T11:00:22.564Z,77.27
2023-01-15T11:03:04.233Z,77.50
2023-01-15T11:05:39.877Z,77.52
2023-01-15T11:09:06.785Z,77.63
2023-01-15T11:11:44.994Z,78.40
2023-01-15T11:14:42.797Z,77.40
2023-01-15T11:17:34.565Z,77.14
2023-01-15T11:20:21.800Z,77.70
2023-01-15T11:22:56.832Z,77.77
2023-01-15T11:25:33.529Z,77.87
2023-01-15T11:28:09.985Z,78.03
2023-01-15T11:30:45.421Z,78.27
2023-01-15T11:33:24.649Z,78.18
2023-01-15T11:36:02.189Z,77.14
2023-01-15T11:38:45.871Z,76.97
2023-01-15T11:41:25.276Z,77.17
2023-01-15T11:44:17.867Z,77.73
2023-01-15T11:47:14.459Z,77.85
2023-01-15T11:50:09.261Z,77.47
2023-01-15T11:52:49.476Z,77.25
2023-01-15T11:55:27.586Z,77.91
2023-01-15T11:58:02.998Z,76.96
2023-01-15T12:00:44.740Z,76.94
2023-01-15T12:03:21.846Z,77.13
2023-01-15T12:06:00.453Z,76.25
2023-01-15T12:08:49.447Z,76.34
2023-01-15T12:11:44.535Z,76.16
2023-01-15T12:14:40.747Z,75.67
2023-01-15T12:17:30.987Z,76.33
2023-01-15T12:20:19.594Z,75.84
2023-01-15T12:23:22.631Z,76.24
2023-01-15T12:26:08.807Z,76.73
2023-01-15T12:28:51.522Z,76.19
2023-01-15T12:31:33.302Z,75.40
2023-01-15T12:34:17.795Z,73.85
2023-01-15T12:36:56.438Z,74.73
2023-01-15T12:39:35.104Z,73.92
2023-01-15T12:42:34.622Z,73.37
2023-01-15T12:45:11.886Z,74.06
2023-01-15T12:47:52.173Z,74.55
2023-01-15T12:50:34.399Z,74.06
2023-01-15T12:53:18.092Z,73.80
2023-01-15T12:55:57.791Z,74.02
2023-01-15T12:58:44.973Z,81.98
2023-01-15T13:01:25.642Z,74.15
2023-01-15T13:04:11.875Z,73.80
2023-01-15T13:06:50.325Z,73.92
2023-01-15T13:09:40.037Z,73.89
2023-01-15T13:12:15.647Z,73.60
2023-01-15T13:14:51.617Z,73.66
2023-01-15T13:17:33.444Z,72.61
2023-01-15T13:20:26.259Z,73.07
2023-01-15T13:23:10.146Z,73.54
2023-01-15T13:26:01.479Z,73.93
2023-01-15T13:28:48.513Z,74.01
2023-01-15T13:31:59.171Z,74.23
2023-01-15T13:34:39.958Z,74.36
2023-01-15T13:37:24.148Z,75.26
2023-01-15T13:40:03.639Z,75.00
2023-01-15T13:42:40.863Z,75.18
2023-01-15T13:45:33.424Z,75.51
2023-01-15T13:48:14.587Z,75.52
2023-01-15T13:50:54.728Z,75.69
2023-01-15T13:53:32.065Z,75.86
2023-01-15T13:56:09.661Z,75.51
2023-01-15T13:58:54.830Z,76.01
2023-01-15T14:01:35.380Z,76.14
2023-01-15T14:04:16.461Z,76.56
2023-01-15T14:06:52.489Z,75.94
2023-01-15T14:09:32.092Z,76.11
2023-01-15T14:12:16.478Z,77.01
2023-01-15T14:15:17.695Z,77.46
2023-01-15T14:18:15.524Z,76.95
2023-01-15T14:21:08.957Z,77.52
2023-01-15T14:24:07.899Z,77.03
2023-01-15T14:26:51.552Z,76.78
2023-01-15T14:29:56.233Z,77.22
2023-01-15T14:32:49.438Z,77.08
2023-01-15T14:35:26.316Z,90.86
2023-01-15T14:38:06.556Z,76.82
2023-01-15T14:40:54.412Z,76.45
2023-01-15T14:43:33.522Z,76.67
2023-01-15T14:46:16.341Z,77.50
2023-01-15T14:48:51.222Z,98.60
2023-01-15T14:51:28.896Z,77.88
2023-01-15T14:54:07.602Z,77.19
2023-01-15T14:56:46.721Z,77.58
2023-01-15T14:59:25.902Z,78.39
2023-01-15T15:03:05.445Z,78.85
2023-01-15T15:05:44.459Z,78.85
2023-01-15T15:08:20.991Z,79.37
2023-01-15T15:10:57.432Z,77.83
2023-01-15T15:13:37.421Z,77.62
2023-01-15T15:16:19.604Z,78.05
2023-01-15T15:19:01.828Z,78.60
2023-01-15T15:21:41.889Z,78.49
2023-01-15T15:24:22.742Z,78.29
2023-01-15T15:26:57.415Z,78.29
2023-01-15T15:29:31.695Z,78.51
2023-01-15T15:32:06.562Z,78.93
2023-01-15T15:34:48.424Z,79.01
2023-01-15T15:37:26.289Z,79.12
2023-01-15T15:40:04.124Z,79.28
2023-01-15T15:43:01.670Z,79.64
2023-01-15T15:45:53.460Z,79.29
2023-01-15T15:48:45.733Z,80.31
2023-01-15T15:51:36.378Z,81.49
2023-01-15T15:54:15.922Z,80.44
2023-01-15T15:56:55.907Z,80.45
2023-01-15T15:59:33.952Z,81.22
2023-01-15T16:02:18.294Z,81.34
2023-01-15T16:04:55.015Z,81.60
2023-01-15T16:07:33.850Z,81.72
2023-01-15T16:10:16.887Z,82.19
2023-01-15T16:12:54.231Z,82.61
2023-01-15T16:15:32.233Z,82.78
2023-01-15T16:18:07.436Z,83.21
2023-01-15T16:20:42.731Z,83.59
2023-01-15T16:23:23.119Z,83.48
2023-01-15T16:26:01.557Z,83.99
2023-01-15T16:28:42.478Z,84.03
2023-01-15T16:31:20.097Z,84.13
2023-01-15T16:33:57.162Z,84.79
2023-01-15T16:36:41.581Z,85.09
2023-01-15T16:39:25.240Z,85.24
2023-01-15T16:42:02.408Z,84.98
2023-01-15T16:44:44.303Z,85.50
2023-01-15T16:47:25.687Z,85.71
2023-01-15T16:50:29.403Z,86.00
2023-01-15T16:53:06.163Z,86.16
2023-01-15T16:55:46.729Z,86.25
2023-01-15T16:58:33.420Z,87.01
2023-01-15T17:01:34.676Z,87.21
2023-01-15T17:04:25.589Z,86.87
2023-01-15T17:07:03.776Z,87.22
2023-01-15T17:09:39.258Z,87.50
2023-01-15T17:12:27.989Z,87.82
2023-01-15T17:15:30.793Z,88.08
2023-01-15T17:18:22.381Z,88.33
2023-01-15T17:20:57.915Z,88.91
2023-01-15T17:23:38.950Z,89.14
2023-01-15T17:26:20.094Z,89.44
2023-01-15T17:28:56.114Z,89.79
2023-01-15T17:31:32.565Z,89.58
2023-01-15T17:34:07.339Z,89.67
2023-01-15T17:36:42.383Z,89.95
2023-01-15T17:39:20.363Z,90.00
2023-01-15T17:41:55.436Z,90.03
2023-01-15T17:44:32.402Z,89.86
2023-01-15T17:47:07.726Z,90.06
2023-01-15T17:49:42.157Z,100.00
2023-01-15T17:52:20.731Z,95.15
2023-01-15T17:55:12.683Z,90.10
2023-01-15T17:58:05.230Z,89.09
2023-01-15T18:00:58.771Z,89.57
2023-01-15T18:03:51.948Z,89.43
2023-01-15T18:06:26.489Z,90.06
2023-01-15T18:09:04.241Z,89.84
2023-01-15T18:11:38.923Z,100.00
2023-01-15T18:14:14.173Z,100.00
2023-01-15T18:16:50.003Z,100.00
2023-01-15T18:19:24.825Z,94.83
2023-01-15T18:21:59.535Z,88.53
2023-01-15T18:24:34.267Z,88.74
2023-01-15T18:27:08.458Z,88.75
2023-01-15T18:29:43.777Z,88.93
2023-01-15T18:32:20.713Z,87.81
2023-01-15T18:34:55.555Z,88.96
2023-01-15T18:37:30.013Z,89.38
2023-01-15T18:40:04.820Z,89.08
2023-01-15T18:42:57.741Z,89.24
2023-01-15T18:45:50.002Z,89.82
2023-01-15T18:48:25.872Z,89.59
2023-01-15T18:51:07.217Z,90.01
2023-01-15T18:53:41.773Z,91.03
2023-01-15T18:56:36.986Z,90.96
2023-01-15T18:59:14.964Z,90.57
2023-01-15T19:01:50.460Z,91.59
2023-01-15T19:04:26.651Z,91.78
2023-01-15T19:07:03.654Z,92.65
2023-01-15T19:09:38.519Z,92.47
2023-01-15T19:12:14.656Z,91.76
2023-01-15T19:15:06.244Z,92.15
2023-01-15T19:17:58.612Z,92.83
2023-01-15T19:20:34.638Z,91.19
2023-01-15T19:23:09.527Z,91.81
2023-01-15T19:25:46.169Z,92.86
2023-01-15T19:28:22.333Z,91.55
2023-01-15T19:31:20.279Z,91.74
2023-01-15T19:34:07.944Z,92.84
2023-01-15T19:36:54.748Z,93.30
2023-01-15T19:39:30.515Z,100.00
2023-01-15T19:42:22.791Z,100.00
2023-01-15T19:45:15.030Z,95.15
2023-01-15T19:48:07.548Z,95.11
2023-01-15T19:50:44.661Z,93.71
2023-01-15T19:53:20.374Z,93.96
2023-01-15T19:55:55.320Z,93.51
2023-01-15T19:58:29.930Z,92.93
2023-01-15T20:01:05.299Z,92.12
2023-01-15T20:03:40.258Z,93.18
2023-01-15T20:06:15.235Z,93.22
2023-01-15T20:08:51.310Z,91.80
2023-01-15T20:11:45.893Z,92.29
2023-01-15T20:14:20.138Z,92.40
2023-01-15T20:16:54.666Z,91.46
2023-01-15T20:19:29.573Z,91.93
2023-01-15T20:22:04.297Z,91.69
2023-01-15T20:24:42.824Z,91.84
2023-01-15T20:27:17.252Z,100.00
2023-01-15T20:29:52.779Z,100.00
2023-01-15T20:32:27.313Z,92.31
2023-01-15T20:35:02.219Z,90.29
2023-01-15T20:37:39.422Z,91.09
2023-01-15T20:40:16.910Z,90.67
2023-01-15T20:43:08.879Z,90.75
2023-01-15T20:45:43.551Z,91.50
2023-01-15T20:48:44.497Z,90.87
2023-01-15T20:51:20.127Z,93.24
2023-01-15T20:53:54.890Z,93.06
2023-01-15T20:56:31.069Z,92.78
2023-01-15T20:59:05.656Z,91.88
2023-01-15T21:01:41.795Z,91.28
2023-01-15T21:04:16.263Z,90.14
2023-01-15T21:06:51.013Z,91.05
2023-01-15T21:09:25.314Z,100.00
2023-01-15T21:12:01.776Z,100.00
2023-01-15T21:14:36.201Z,100.00
2023-01-15T21:17:11.446Z,100.00
2023-01-15T21:19:46.200Z,100.00
2023-01-15T21:22:20.874Z,100.00
2023-01-15T21:24:55.152Z,95.07
2023-01-15T21:27:32.172Z,92.81
2023-01-15T21:30:08.891Z,92.34
2023-01-15T21:32:46.463Z,92.26
2023-01-15T21:35:20.808Z,92.21
2023-01-15T21:37:55.347Z,91.78
2023-01-15T21:40:29.575Z,92.97
2023-01-15T21:43:23.174Z,92.16
2023-01-15T21:46:03.384Z,91.93
2023-01-15T21:48:37.916Z,91.44
2023-01-15T21:51:12.276Z,92.06
2023-01-15T21:53:46.859Z,91.28
2023-01-15T21:56:21.465Z,91.17
2023-01-15T21:58:57.849Z,91.16
2023-01-15T22:01:32.193Z,91.00
2023-01-15T22:04:07.640Z,91.26
2023-01-15T22:06:41.868Z,92.86
2023-01-15T22:09:17.888Z,93.67
2023-01-15T22:11:52.786Z,93.33
2023-01-15T22:14:30.263Z,92.52
2023-01-15T22:17:05.549Z,91.01
2023-01-15T22:19:40.051Z,91.98
2023-01-15T22:22:14.496Z,90.72
2023-01-15T22:24:48.917Z,91.62
2023-01-15T22:27:23.114Z,91.05
2023-01-15T22:29:59.087Z,90.27
2023-01-15T22:32:33.321Z,90.88
2023-01-15T22:35:09.029Z,91.24
2023-01-15T22:37:43.483Z,91.73
2023-01-15T22:40:18.136Z,92.47
2023-01-15T22:42:52.332Z,92.85
2023-01-15T22:45:28.245Z,93.14
2023-01-15T22:48:02.428Z,92.03
2023-01-15T22:50:38.367Z,92.78
2023-01-15T22:53:12.951Z,93.61
2023-01-15T22:55:55.565Z,93.77
2023-01-15T22:58:29.805Z,93.92
2023-01-15T23:03:08.241Z,91.17
2023-01-15T23:05:43.209Z,91.17
2023-01-15T23:08:17.602Z,92.62
2023-01-15T23:10:52.104Z,93.49
2023-01-15T23:13:26.320Z,92.55
2023-01-15T23:16:02.062Z,92.88
2023-01-15T23:18:37.959Z,93.12
2023-01-15T23:21:15.316Z,93.29
2023-01-15T23:23:53.837Z,93.62
2023-01-15T23:26:31.842Z,93.84
2023-01-15T23:29:06.828Z,93.99
2023-01-15T23:31:41.314Z,93.89
2023-01-15T23:34:17.101Z,94.04
2023-01-15T23:36:51.539Z,93.63
2023-01-15T23:39:27.229Z,92.90
2023-01-15T23:42:21.701Z,93.17
2023-01-15T23:45:13.320Z,93.55
2023-01-15T23:47:47.961Z,93.17
2023-01-15T23:50:24.978Z,93.20
2023-01-15T23:52:59.475Z,93.16
2023-01-15T23:55:33.639Z,92.87
2023-01-15T23:58:08.304Z,92.79
